Terminal Aerodrome Forecast
Issued by NWS Sioux Falls, SD

Home | Current Version | Previous Version | Text Only | Print | Product List | Glossary On
Versions: 1 2 3 4 5 6 7 8 9 10 11 12 13 14 15 16 17 18
000
FTUS43 KFSD 241100
TAFSUX
TAF
KSUX 241127Z 2412/2512 VRB03KT P6SM SCT010 OVC022
      TEMPO 2412/2414 4SM BR BKN010
     FM241400 35013KT P6SM OVC015
      TEMPO 2416/2417 BKN025
     FM241700 34015G22KT P6SM BKN200
     FM241900 33018G27KT P6SM SKC
     FM250100 32009KT P6SM SKC
     FM250900 VRB03KT P6SM BKN150=

USA.gov is the U.S. government's official web portal to all federal, state and local government web resources and services.